Terminal Aerodrome Forecast
Issued by NWS

Home | Current Version | Previous Version | Text Only | Print | Product List | Glossary On
Versions: 1 2 3 4 5 6 7 8 9 10 11 12 13 14
052
FTUS46 KLOX 051733
TAFOXR
TAF
KOXR 051733Z 0518/0618 08013G18KT P6SM SCT250
     FM052200 29010KT P6SM SCT250
     FM060300 VRB03KT P6SM SCT250
     FM060800 07008KT P6SM SCT250
     FM061500 09012G18KT P6SM SCT250=

USA.gov is the U.S. government's official web portal to all federal, state and local government web resources and services.